Hovedside
METAR-TAF:

METAR-TAF

Lufthavner :

Nioro du Sahel, Mali

breddegrad: 15-14N, lengdegrad: 009-21W, høyde over havet: 235 m

Gjeldene værobservasjon

Denne rapporten ble laget for 3 timer og 17 minutter siden, klokken 12:00 UTC
Vind 8 kt fra Vest-sørvest
Temperatur 26°C
Luftfuktighet 79%
Trykk 1015 hPa
Sikt 10 km eller mer
Spredte skyer i en høyde av 3000 ft

METAR: GANR 181200Z 24008KT 9999 SCT030 26/22 Q1015

Tid: 15:17 (15:17 UTC)


TAF: fraværende

Værobservasjoner og værvarsel for over 4000 flyplasser (METAR- og TAF-rapporter).

Tilgjengelige stasjoner er representert av de røde og gule prikkene på kartet.

Hold musepekeren over prikken for å se navnet på stasjonen.

Klikk så for å se værobservasjoner og -varsler.

For å forandre kartet kan du klikke på den grønne knappen med svart kryss for å zoome inn, på den grønne knappen med strek for å zoome ut, eller på de grønne pilene for å se tilstøtende kart.


METAR-TAF: